Time;durP1;ratioP1;P1;durP2;ratioP2;P2;SDS_P1;SDS_P2;PMS_P1;PMS_P2;Temp;Humidity;BMP_temperature;BMP_pressure;BME280_temperature;BME280_humidity;BME280_pressure;Samples;Min_cycle;Max_cycle;Signal;HPM_P1;HPM_P2
2021/10/28 00:13:53;;;;;;;7.32;6.65;;;;;;;8.11;79.81;99275.97;5040806;27;103867;-64
2021/10/28 00:16:25;;;;;;;8.77;7.90;;;;;;;7.76;80.15;99271.72;5039500;27;102568;-64
2021/10/28 00:19:00;;;;;;;9.27;8.32;;;;;;;7.80;81.99;99267.16;5046756;27;102725;-64
2021/10/28 00:21:31;;;;;;;9.77;8.80;;;;;;;7.76;83.67;99265.59;5041395;27;103475;-64
2021/10/28 00:24:02;;;;;;;13.13;11.83;;;;;;;7.28;85.58;99259.28;5037566;27;102973;-64
2021/10/28 00:26:32;;;;;;;14.38;12.88;;;;;;;7.18;89.30;99252.81;5044078;27;104225;-64
2021/10/28 00:29:02;;;;;;;12.55;11.35;;;;;;;7.52;88.34;99259.84;5047213;27;102942;-64
2021/10/28 00:31:32;;;;;;;10.25;9.35;;;;;;;7.89;86.57;99259.63;5042364;27;104367;-64
2021/10/28 00:34:01;;;;;;;13.65;12.02;;;;;;;7.73;84.53;99255.25;5028244;27;103303;-64
2021/10/28 00:36:31;;;;;;;8.95;8.13;;;;;;;7.99;84.32;99252.09;5045317;27;102697;-64
2021/10/28 00:38:59;;;;;;;8.15;7.43;;;;;;;8.13;82.22;99249.59;5047900;27;102692;-65
2021/10/28 00:41:28;;;;;;;9.27;8.50;;;;;;;7.93;80.94;99248.03;5045177;27;103368;-64
2021/10/28 00:43:57;;;;;;;19.08;17.15;;;;;;;6.64;89.70;99255.50;5038791;27;103234;-64
2021/10/28 00:46:28;;;;;;;22.73;20.48;;;;;;;6.63;94.04;99246.75;5043474;27;103216;-64
2021/10/28 00:48:57;;;;;;;19.50;17.53;;;;;;;7.04;90.47;99250.00;5044479;27;102966;-65
2021/10/28 00:51:27;;;;;;;20.10;18.17;;;;;;;7.16;90.35;99245.94;5021344;27;103369;-64
2021/10/28 00:53:58;;;;;;;24.85;22.27;;;;;;;6.74;94.17;99248.84;5047434;27;104283;-64
2021/10/28 00:56:29;;;;;;;25.50;22.80;;;;;;;6.63;96.00;99244.13;5032315;27;102835;-64
2021/10/28 00:58:57;;;;;;;20.23;18.10;;;;;;;7.11;95.15;99240.03;5049992;27;103946;-64
2021/10/28 01:01:25;;;;;;;25.58;22.88;;;;;;;7.03;93.86;99245.69;5032262;27;103254;-64
2021/10/28 01:03:53;;;;;;;20.50;18.58;;;;;;;7.35;90.70;99247.56;5041028;27;103024;-64
2021/10/28 01:06:22;;;;;;;21.13;19.03;;;;;;;7.38;92.16;99250.00;5040162;27;103105;-64
2021/10/28 01:08:52;;;;;;;14.90;13.60;;;;;;;7.74;90.44;99247.28;5043265;27;102642;-65
2021/10/28 01:11:21;;;;;;;21.27;19.08;;;;;;;7.51;89.77;99243.22;5046468;27;103285;-65
2021/10/28 01:13:50;;;;;;;27.98;25.08;;;;;;;6.84;96.07;99242.25;5045129;27;103422;-65
2021/10/28 01:16:21;;;;;;;25.67;23.17;;;;;;;7.07;96.09;99255.13;5024695;27;102683;-64
2021/10/28 01:18:49;;;;;;;21.15;19.05;;;;;;;7.31;94.50;99248.63;5043919;27;102708;-64
2021/10/28 01:21:19;;;;;;;23.90;21.53;;;;;;;7.43;92.26;99248.03;5040976;27;103308;-65
2021/10/28 01:23:48;;;;;;;29.67;25.80;;;;;;;6.80;96.03;99245.94;5047392;27;103173;-63
2021/10/28 01:26:17;;;;;;;21.52;19.38;;;;;;;7.30;94.53;99241.66;5028991;27;102909;-63
2021/10/28 01:28:54;;;;;;;22.35;20.15;;;;;;;7.44;93.22;99239.19;5042489;27;104202;-64
2021/10/28 01:31:24;;;;;;;24.97;22.47;;;;;;;7.28;92.04;99240.91;5048096;27;103026;-63
2021/10/28 01:33:54;;;;;;;22.03;19.77;;;;;;;7.21;90.82;99236.91;5046414;27;103368;-63
2021/10/28 01:36:25;;;;;;;24.50;21.92;;;;;;;7.09;91.62;99232.25;5027229;27;103369;-63
2021/10/28 01:38:54;;;;;;;18.92;17.13;;;;;;;7.55;91.03;99233.41;5037938;27;102635;-63
2021/10/28 01:41:24;;;;;;;25.50;22.77;;;;;;;7.09;91.42;99234.88;5021707;27;103214;-63
2021/10/28 01:43:53;;;;;;;23.17;20.70;;;;;;;7.13;91.95;99233.78;5030353;27;103201;-63
2021/10/28 01:46:22;;;;;;;27.27;24.48;;;;;;;6.66;94.25;99243.13;5044914;27;103033;-63
2021/10/28 01:48:51;;;;;;;21.47;19.43;;;;;;;7.33;94.18;99236.25;5048147;27;102879;-63
2021/10/28 01:51:21;;;;;;;15.80;14.38;;;;;;;7.80;91.43;99241.72;5043839;27;103373;-63
2021/10/28 01:53:51;;;;;;;24.73;22.15;;;;;;;7.06;88.12;99232.38;5013407;27;103307;-63
2021/10/28 01:56:19;;;;;;;25.27;22.77;;;;;;;6.81;92.86;99218.75;5045390;27;102648;-63
2021/10/28 01:58:50;;;;;;;20.55;18.52;;;;;;;7.30;91.11;99223.25;5036422;27;102996;-64
2021/10/28 02:01:19;;;;;;;21.88;19.80;;;;;;;7.39;89.29;99225.44;5049381;27;104071;-63
2021/10/28 02:03:47;;;;;;;23.00;20.67;;;;;;;7.21;88.91;99226.38;5024952;27;103370;-63
2021/10/28 02:06:16;;;;;;;22.42;20.33;;;;;;;7.02;90.36;99225.56;5049991;27;102733;-63
2021/10/28 02:08:44;;;;;;;22.38;20.15;;;;;;;7.07;92.36;99223.59;5041251;27;103117;-64
2021/10/28 02:11:14;;;;;;;23.43;21.07;;;;;;;6.93;91.97;99223.44;5030835;27;104190;-63
2021/10/28 02:13:44;;;;;;;15.95;14.45;;;;;;;7.44;90.46;99223.41;5019002;27;103246;-63
2021/10/28 02:16:14;;;;;;;15.00;13.63;;;;;;;7.79;88.64;99224.22;5035261;27;102693;-63
2021/10/28 02:18:42;;;;;;;13.13;11.98;;;;;;;7.94;86.69;99220.75;5030973;27;103790;-63
2021/10/28 02:21:11;;;;;;;16.40;14.90;;;;;;;7.98;85.67;99222.31;5035517;27;104298;-64
2021/10/28 02:23:39;;;;;;;13.68;12.38;;;;;;;8.00;85.43;99216.97;5043496;27;103487;-63
2021/10/28 02:26:07;;;;;;;15.40;14.00;;;;;;;8.07;84.87;99218.34;5041484;27;102613;-64
2021/10/28 02:28:37;;;;;;;17.08;15.57;;;;;;;8.04;83.92;99215.84;5045482;27;102641;-63
2021/10/28 02:31:05;;;;;;;17.53;15.83;;;;;;;7.94;83.00;99218.13;5043197;27;103275;-63
2021/10/28 02:33:33;;;;;;;18.27;16.63;;;;;;;7.82;83.01;99220.56;5046558;27;103493;-65
2021/10/28 02:36:01;;;;;;;16.70;15.13;;;;;;;7.80;83.86;99219.81;5040795;27;102760;-63
2021/10/28 02:38:29;;;;;;;19.37;17.50;;;;;;;7.40;83.16;99219.25;5047555;27;102820;-64
2021/10/28 02:40:58;;;;;;;17.85;16.15;;;;;;;7.41;84.98;99214.84;5036243;27;103698;-63
2021/10/28 02:43:26;;;;;;;12.80;11.70;;;;;;;7.75;84.20;99221.84;5036130;27;103166;-63
2021/10/28 02:45:56;;;;;;;11.68;10.63;;;;;;;7.88;82.79;99213.22;5031986;27;102713;-63
2021/10/28 02:48:25;;;;;;;12.60;11.50;;;;;;;7.93;81.53;99210.31;5034458;27;104236;-63
2021/10/28 02:50:53;;;;;;;17.55;15.95;;;;;;;7.59;80.49;99214.75;5040357;27;104059;-63
2021/10/28 02:53:21;;;;;;;12.67;11.57;;;;;;;7.71;81.86;99210.63;5053176;27;103211;-63
2021/10/28 02:55:50;;;;;;;15.02;13.73;;;;;;;7.76;81.25;99218.25;5049963;27;102681;-63
2021/10/28 02:58:18;;;;;;;18.60;16.90;;;;;;;6.99;82.44;99216.06;5045923;27;102855;-63
2021/10/28 03:00:47;;;;;;;22.17;20.08;;;;;;;6.39;87.09;99213.81;5043405;27;103235;-63
2021/10/28 03:03:17;;;;;;;22.30;20.00;;;;;;;6.18;90.25;99210.41;5027929;27;102991;-64
2021/10/28 03:05:45;;;;;;;24.37;21.87;;;;;;;6.14;91.31;99208.84;5044883;27;103272;-63
2021/10/28 03:08:13;;;;;;;17.00;15.50;;;;;;;6.75;89.86;99211.19;5041451;27;102804;-63
2021/10/28 03:10:43;;;;;;;18.02;16.33;;;;;;;7.06;87.36;99203.50;5041714;27;103213;-63
2021/10/28 03:13:15;;;;;;;17.17;15.60;;;;;;;7.14;87.01;99203.94;5018745;27;103324;-63
2021/10/28 03:15:43;;;;;;;20.13;18.17;;;;;;;7.22;85.99;99201.78;5052672;27;102755;-63
2021/10/28 03:19:08;;;;;;;27.75;24.77;;;;;;;6.07;91.79;99211.81;5040652;27;102938;-63
2021/10/28 03:26:41;;;;;;;25.65;23.05;;;;;;;6.18;95.60;99206.91;5050181;27;103032;-63
2021/10/28 03:29:09;;;;;;;28.88;25.83;;;;;;;6.05;94.61;99203.19;5038296;27;102718;-63
2021/10/28 03:31:37;;;;;;;29.73;26.53;;;;;;;5.92;96.24;99200.28;5041528;27;103295;-63
2021/10/28 03:34:05;;;;;;;30.08;26.90;;;;;;;5.80;96.85;99209.50;5036574;27;103248;-63
2021/10/28 03:36:43;;;;;;;24.42;22.02;;;;;;;6.23;95.31;99208.41;5023564;27;102900;-63
2021/10/28 03:39:23;;;;;;;16.77;15.27;;;;;;;6.68;93.79;99205.38;5037381;27;102709;-64
2021/10/28 03:48:25;;;;;;;20.07;18.17;;;;;;;7.12;90.31;99197.06;5037896;27;102660;-63
2021/10/28 04:19:01;;;;;;;33.22;29.60;;;;;;;5.66;97.60;99200.56;5022131;27;104114;-62
2021/10/28 04:21:58;;;;;;;25.63;23.05;;;;;;;6.08;97.08;99203.88;5046653;27;102717;-64
2021/10/28 04:29:58;;;;;;;28.58;25.67;;;;;;;6.26;93.73;99192.53;5021466;27;103340;-63
2021/10/28 04:32:29;;;;;;;20.33;18.33;;;;;;;6.72;93.61;99196.44;5045424;27;102725;-62
2021/10/28 04:34:57;;;;;;;18.10;16.50;;;;;;;6.98;90.59;99198.63;5036703;27;102659;-62
2021/10/28 04:37:25;;;;;;;16.77;15.27;;;;;;;7.16;88.99;99201.25;5044115;27;103992;-63
2021/10/28 04:39:54;;;;;;;18.92;17.17;;;;;;;7.26;87.55;99200.72;5037145;27;103624;-62
2021/10/28 04:42:24;;;;;;;18.35;16.75;;;;;;;7.29;86.43;99197.94;5049933;27;102923;-62
2021/10/28 04:44:52;;;;;;;18.53;16.83;;;;;;;7.33;86.27;99199.44;5039812;27;103172;-62
2021/10/28 04:47:20;;;;;;;17.02;15.52;;;;;;;7.35;85.14;99199.41;5019125;27;103476;-62
2021/10/28 04:49:49;;;;;;;17.02;15.43;;;;;;;7.33;84.42;99199.44;5044875;27;103260;-62
2021/10/28 04:52:18;;;;;;;15.30;13.85;;;;;;;7.34;84.70;99201.16;5037136;27;103318;-62
2021/10/28 04:54:46;;;;;;;17.98;16.38;;;;;;;7.28;84.08;99198.84;5030502;27;102962;-63
2021/10/28 04:57:14;;;;;;;18.88;17.13;;;;;;;7.35;85.13;99199.41;5032648;27;103815;-63
2021/10/28 04:59:44;;;;;;;17.25;15.70;;;;;;;7.38;85.48;99200.06;5035527;27;103498;-63
2021/10/28 05:02:12;;;;;;;17.48;15.88;;;;;;;7.42;85.53;99199.00;5041195;27;102658;-63
2021/10/28 05:04:41;;;;;;;19.65;17.85;;;;;;;7.44;85.56;99191.88;5046017;27;102640;-62
2021/10/28 05:07:09;;;;;;;18.35;16.65;;;;;;;7.47;85.02;99191.69;5039830;27;102934;-63
2021/10/28 05:09:40;;;;;;;16.55;15.13;;;;;;;7.51;85.27;99192.41;5029907;27;103290;-63
2021/10/28 05:12:10;;;;;;;22.85;20.70;;;;;;;6.74;86.78;99194.56;5033042;27;102657;-63
2021/10/28 05:14:41;;;;;;;19.58;17.80;;;;;;;6.92;87.21;99190.19;5025468;27;103165;-63
2021/10/28 05:17:10;;;;;;;21.58;19.55;;;;;;;6.75;87.25;99192.78;5036425;27;103297;-62
2021/10/28 05:19:39;;;;;;;20.20;18.30;;;;;;;6.83;87.31;99185.38;5041061;27;103218;-63
2021/10/28 05:22:08;;;;;;;16.45;14.98;;;;;;;7.09;86.33;99195.47;5035195;27;103280;-63
2021/10/28 05:24:37;;;;;;;19.95;18.13;;;;;;;6.85;86.09;99188.78;5043559;27;102784;-63
2021/10/28 05:27:06;;;;;;;20.40;18.43;;;;;;;6.76;86.08;99187.50;5041041;27;104038;-63
2021/10/28 05:29:55;;;;;;;24.35;22.05;;;;;;;6.31;91.42;99177.44;5038088;27;103217;-63
2021/10/28 05:32:24;;;;;;;25.15;22.65;;;;;;;6.18;92.53;99188.56;5024501;27;103055;-62
2021/10/28 05:34:58;;;;;;;23.40;21.10;;;;;;;6.31;93.18;99182.69;5021437;27;102821;-63
2021/10/28 05:37:26;;;;;;;24.30;21.90;;;;;;;6.52;90.53;99172.91;5043316;27;103214;-63
2021/10/28 05:39:59;;;;;;;14.93;13.55;;;;;;;7.01;90.05;99171.34;5036881;27;103449;-62
2021/10/28 05:42:29;;;;;;;17.80;16.20;;;;;;;7.22;88.60;99174.66;5040170;27;102876;-63
2021/10/28 05:44:58;;;;;;;18.05;16.40;;;;;;;7.34;87.92;99185.41;5026491;27;102703;-62
2021/10/28 05:47:28;;;;;;;20.67;18.67;;;;;;;7.31;87.25;99184.69;5034121;27;104146;-62
2021/10/28 05:50:20;;;;;;;24.50;22.00;;;;;;;7.07;88.99;99180.69;5040194;27;103331;-62
2021/10/28 05:52:50;;;;;;;21.47;19.37;;;;;;;7.24;88.28;99184.16;5022762;27;102639;-62
2021/10/28 05:55:20;;;;;;;18.50;16.80;;;;;;;7.51;87.51;99177.47;5035203;27;103273;-62
2021/10/28 05:57:50;;;;;;;17.33;15.73;;;;;;;7.59;86.65;99180.56;5042214;27;103963;-62
2021/10/28 06:00:20;;;;;;;20.33;18.30;;;;;;;7.51;87.30;99182.75;5045395;27;103072;-63
2021/10/28 06:02:50;;;;;;;20.08;18.27;;;;;;;7.61;87.14;99177.00;5047701;27;103022;-63
2021/10/28 06:05:20;;;;;;;16.10;14.67;;;;;;;7.76;86.48;99181.44;5044104;27;102864;-62
2021/10/28 06:07:48;;;;;;;19.63;17.83;;;;;;;7.77;86.68;99183.16;5042918;27;103481;-62
2021/10/28 06:10:19;;;;;;;18.58;16.75;;;;;;;7.81;86.83;99184.66;5040482;27;103206;-62
2021/10/28 06:12:51;;;;;;;21.53;19.47;;;;;;;7.71;86.28;99178.22;5036935;27;102713;-62
2021/10/28 06:15:23;;;;;;;21.95;19.85;;;;;;;7.48;87.94;99188.16;5041325;27;103191;-63
2021/10/28 06:17:57;;;;;;;22.87;20.57;;;;;;;7.44;90.24;99185.75;5038118;27;103404;-63
2021/10/28 06:20:25;;;;;;;24.35;21.95;;;;;;;7.38;89.85;99181.66;5043057;27;103239;-63
2021/10/28 06:22:55;;;;;;;18.75;16.95;;;;;;;7.75;88.36;99179.75;5027356;27;102836;-62
2021/10/28 06:25:24;;;;;;;25.00;22.30;;;;;;;7.55;88.46;99186.06;5045101;27;102685;-62
2021/10/28 06:27:52;;;;;;;23.70;21.20;;;;;;;7.65;88.79;99189.03;5039811;27;104441;-63
2021/10/28 06:30:21;;;;;;;21.98;19.63;;;;;;;7.92;87.28;99187.56;5044053;27;103290;-63
2021/10/28 06:32:53;;;;;;;27.00;24.17;;;;;;;7.56;88.21;99185.97;5048705;27;102703;-62
2021/10/28 06:35:25;;;;;;;29.63;26.58;;;;;;;7.30;89.76;99193.50;5039537;27;104449;-63
2021/10/28 06:37:56;;;;;;;25.33;22.75;;;;;;;7.65;88.88;99189.03;5035078;27;103032;-63
2021/10/28 06:40:27;;;;;;;20.55;18.48;;;;;;;7.99;87.56;99175.78;5034312;27;103902;-63
2021/10/28 06:42:57;;;;;;;28.35;25.35;;;;;;;7.58;87.88;99188.50;5045774;27;103067;-63
2021/10/28 06:45:27;;;;;;;28.15;24.98;;;;;;;7.64;88.67;99189.97;5043472;27;102991;-63
2021/10/28 06:47:56;;;;;;;29.05;26.05;;;;;;;7.84;86.75;99179.25;5051428;27;103882;-63
2021/10/28 06:50:29;;;;;;;24.17;21.80;;;;;;;7.91;87.03;99170.09;5049545;27;103321;-63
2021/10/28 06:53:06;;;;;;;26.73;23.83;;;;;;;7.91;86.46;99170.09;5032298;27;102720;-63
2021/10/28 06:55:42;;;;;;;24.88;22.35;;;;;;;8.01;85.24;99172.16;5043702;27;102976;-63
2021/10/28 07:03:41;;;;;;;21.23;19.20;;;;;;;8.21;86.34;99173.69;5029947;27;102804;-63
2021/10/28 07:06:13;;;;;;;28.65;25.40;;;;;;;7.56;87.68;99171.97;5033231;27;104664;-63
2021/10/28 07:08:44;;;;;;;24.88;22.33;;;;;;;7.74;88.98;99171.00;5041843;27;104155;-63
2021/10/28 07:11:17;;;;;;;19.90;18.00;;;;;;;8.28;87.10;99176.88;5041469;27;103519;-63
2021/10/28 07:13:48;;;;;;;22.40;20.10;;;;;;;8.37;85.52;99169.28;5025018;27;102686;-63
2021/10/28 07:16:22;;;;;;;19.60;17.70;;;;;;;8.46;84.87;99168.78;5035159;27;103042;-63
2021/10/28 07:19:01;;;;;;;20.50;18.57;;;;;;;8.26;85.53;99171.66;5039843;27;103172;-63
2021/10/28 07:21:54;;;;;;;25.48;22.98;;;;;;;8.00;86.15;99175.69;5043678;27;103140;-63
2021/10/28 07:27:34;;;;;;;24.67;22.17;;;;;;;7.75;87.69;99174.50;5043600;27;103236;-62
2021/10/28 07:33:13;;;;;;;20.40;18.40;;;;;;;8.29;86.71;99174.13;4978935;27;103370;-62
2021/10/28 07:55:44;;;;;;;22.63;20.52;;;;;;;8.79;86.01;99175.69;5031661;27;102695;-62
2021/10/28 08:14:57;;;;;;;19.50;17.80;;;;;;;10.58;80.13;99155.81;5018426;27;104289;-63
2021/10/28 08:20:04;;;;;;;18.27;16.60;;;;;;;11.07;77.54;99146.31;5043335;27;102588;-63
2021/10/28 08:22:36;;;;;;;18.50;16.83;;;;;;;11.02;77.38;99151.06;5014672;27;103182;-63
2021/10/28 08:30:37;;;;;;;17.85;16.25;;;;;;;11.54;77.02;99142.22;5040534;27;102770;-61
2021/10/28 08:33:06;;;;;;;16.37;14.90;;;;;;;12.00;75.20;99140.72;5036508;27;104011;-61
2021/10/28 08:35:53;;;;;;;17.70;16.00;;;;;;;12.31;74.60;99138.53;5044629;27;103117;-61
2021/10/28 08:38:21;;;;;;;18.70;17.08;;;;;;;11.71;74.65;99141.94;5042128;27;103184;-62
2021/10/28 08:40:52;;;;;;;17.50;15.90;;;;;;;12.35;73.04;99130.22;5041991;27;102722;-60
2021/10/28 08:43:24;;;;;;;15.70;14.00;;;;;;;11.67;75.50;99132.50;5052996;27;102924;-61
2021/10/28 08:45:53;;;;;;;15.83;14.30;;;;;;;11.29;76.69;99129.84;5031913;27;104001;-61
2021/10/28 08:48:24;;;;;;;13.37;12.17;;;;;;;11.73;76.90;99121.50;5019883;27;103246;-60
2021/10/28 08:51:03;;;;;;;14.77;13.27;;;;;;;12.14;74.75;99115.91;5051713;27;102678;-61
2021/10/28 08:56:24;;;;;;;13.17;11.73;;;;;;;12.66;73.26;99107.63;5036820;27;103979;-61
2021/10/28 09:24:14;;;;;;;13.20;12.00;;;;;;;12.26;74.49;99092.97;5039488;27;102707;-61
2021/10/28 09:26:55;;;;;;;12.47;11.27;;;;;;;12.34;74.51;99085.31;5045921;27;103016;-60
2021/10/28 09:29:34;;;;;;;9.70;8.60;;;;;;;12.95;73.54;99087.72;5048922;27;103281;-60
2021/10/28 09:32:17;;;;;;;12.50;11.10;;;;;;;13.32;70.91;99089.31;5021746;27;103409;-61
2021/10/28 09:35:07;;;;;;;10.53;8.97;;;;;;;13.40;71.84;99094.00;5044495;27;103395;-60
2021/10/28 09:46:12;;;;;;;;;;;;;;;12.77;72.46;99089.97;5046148;27;102657;-63
2021/10/28 09:51:35;;;;;;;;;;;;;;;13.55;71.45;99082.22;5018434;27;103242;-60
2021/10/28 09:54:09;;;;;;;;;;;;;;;13.12;71.75;99078.53;5037277;27;103143;-60
2021/10/28 09:59:24;;;;;;;;;;;;;;;13.64;69.89;99080.63;5037399;27;103932;-61
2021/10/28 10:01:59;;;;;;;;;;;;;;;13.33;69.78;99075.06;5038327;27;103253;-61
2021/10/28 10:04:30;;;;;;;;;;;;;;;12.86;72.42;99077.81;5005923;27;103171;-60
2021/10/28 10:07:02;;;;;;;;;;;;;;;13.16;71.87;99072.88;5042152;27;102928;-61
2021/10/28 10:09:34;;;;;;;;;;;;;;;13.60;70.79;99068.56;5055221;27;102842;-61
2021/10/28 10:12:03;;;;;;;;;;;;;;;13.73;70.20;99078.09;5044146;27;104044;-60
2021/10/28 10:14:32;;;;;;;;;;;;;;;14.16;69.56;99072.84;5035737;27;103325;-62
2021/10/28 10:16:59;;;;;;;;;;;;;;;13.97;68.71;99080.63;5039015;27;103114;-60
2021/10/28 10:19:31;;;;;;;;;;;;;;;14.02;69.49;99075.78;5038262;27;102709;-60
2021/10/28 10:22:06;;;;;;;;;;;;;;;13.80;70.90;99078.47;5048786;27;103937;-61
2021/10/28 10:24:46;;;;;;;;;;;;;;;14.44;69.27;99072.31;5050370;27;103283;-60
2021/10/28 10:30:29;;;;;;;;;;;;;;;14.43;68.08;99072.44;4997791;27;102754;-60
2021/10/28 12:44:49;;;;;;;;;;;;;;;17.16;61.09;98902.25;5048556;27;102669;-65
2021/10/28 12:47:36;;;;;;;;;;;;;;;16.99;61.28;98903.03;5041574;27;102648;-65
2021/10/28 12:53:32;;;;;;;;;;;;;;;17.52;60.65;98895.19;5031555;27;102625;-66
2021/10/28 13:49:53;;;;;;;;;;;;;;;17.10;62.10;98850.31;5038534;27;103138;-61
2021/10/28 13:52:39;;;;;;;;;;;;;;;16.24;64.79;98845.22;5007707;27;102679;-62
2021/10/28 13:55:57;;;;;;;;;;;;;;;16.63;62.87;98841.50;5031755;27;102736;-62
2021/10/28 14:18:46;;;;;;;;;;;;;;;15.57;65.92;98829.28;4997945;27;104032;-62
2021/10/28 14:30:09;;;;;;;;;;;;;;;15.39;67.71;98829.06;5022109;27;102778;-66
2021/10/28 15:28:39;;;;;;;;;;;;;;;14.14;73.71;98806.44;5053149;27;103414;-66
2021/10/28 15:34:27;;;;;;;;;;;;;;;14.01;74.79;98800.47;5039057;27;102910;-65
2021/10/28 15:36:57;;;;;;;;;;;;;;;13.94;74.39;98796.66;5044998;27;102865;-65
2021/10/28 15:39:32;;;;;;;;;;;;;;;13.91;74.90;98802.22;5052766;27;103282;-65
2021/10/28 16:23:45;;;;;;;;;;;;;;;12.29;81.78;98785.47;5037912;27;103963;-64
2021/10/28 16:26:13;;;;;;;;;;;;;;;12.32;81.42;98786.06;5030014;27;103009;-63
2021/10/28 16:28:42;;;;;;;;;;;;;;;12.36;81.09;98786.66;5038292;27;102876;-63
2021/10/28 16:31:10;;;;;;;;;;;;;;;12.32;81.04;98787.88;5050284;27;102698;-64
2021/10/28 16:33:39;;;;;;;;;;;;;;;12.31;80.81;98788.81;5027690;27;103220;-63
2021/10/28 16:36:07;;;;;;;;;;;;;;;12.16;80.59;98791.69;5058866;27;103148;-63
2021/10/28 16:38:35;;;;;;;;;;;;;;;11.85;82.21;98789.72;5035894;27;102858;-65
2021/10/28 16:41:04;;;;;;;;;;;;;;;11.38;84.56;98785.31;5060077;27;104068;-64
2021/10/28 16:43:32;;;;;;;;;;;;;;;11.30;85.15;98789.47;5052550;27;103461;-64
2021/10/28 16:46:01;;;;;;;;;;;;;;;11.17;85.99;98789.53;5049946;27;103158;-64
2021/10/28 16:48:30;;;;;;;;;;;;;;;11.45;84.90;98783.06;5050319;27;102696;-64
2021/10/28 16:50:57;;;;;;;;;;;;;;;11.63;83.79;98793.09;5055350;27;102786;-64
2021/10/28 16:53:25;;;;;;;;;;;;;;;11.74;82.45;98787.03;5029438;27;103815;-64
2021/10/28 16:55:58;;;;;;;;;;;;;;;11.63;82.36;98784.31;5036842;27;103487;-64
2021/10/28 16:58:26;;;;;;;;;;;;;;;11.29;85.12;98790.44;5049269;27;102721;-64
2021/10/28 17:00:55;;;;;;;;;;;;;;;11.32;84.22;98787.56;5036010;27;103873;-64
2021/10/28 17:03:24;;;;;;;;;;;;;;;11.31;83.50;98791.19;5048647;27;103186;-64
2021/10/28 17:05:52;;;;;;;;;;;;;;;11.05;84.67;98786.00;5051392;27;103128;-64
2021/10/28 17:08:20;;;;;;;;;;;;;;;10.78;87.48;98789.78;5043951;27;103043;-64
2021/10/28 17:10:48;;;;;;;;;;;;;;;10.76;85.97;98795.19;5049090;27;102857;-64
2021/10/28 17:13:16;;;;;;;;;;;;;;;10.77;86.58;98786.31;5046924;27;103368;-64
2021/10/28 17:15:44;;;;;;;;;;;;;;;10.87;85.59;98786.47;5040917;27;102593;-64
2021/10/28 17:18:12;;;;;;;;;;;;;;;10.80;85.42;98791.38;5051179;27;102890;-65
2021/10/28 17:20:41;;;;;;;;;;;;;;;10.84;84.75;98798.09;5044205;27;104419;-65
2021/10/28 17:23:13;;;;;;;;;;;;;;;10.73;85.20;98790.09;5032828;27;103660;-62
2021/10/28 17:25:44;;;;;;;;;;;;;;;10.73;85.37;98794.53;5051473;27;103085;-67
2021/10/28 17:28:12;;;;;;;;;;;;;;;10.70;85.37;98800.88;5022542;27;103125;-67
2021/10/28 17:30:39;;;;;;;;;;;;;;;10.60;86.01;98796.38;5049935;27;103165;-68
2021/10/28 17:33:07;;;;;;;;;;;;;;;10.57;87.12;98800.09;5046555;27;103761;-67
2021/10/28 17:35:35;;;;;;;;;;;;;;;10.56;86.13;98802.81;5037864;27;103149;-68
2021/10/28 17:38:04;;;;;;;;;;;;;;;10.50;86.57;98798.81;5024914;27;102713;-67
2021/10/28 17:40:32;;;;;;;;;;;;;;;10.51;87.08;98799.66;5040963;27;102769;-67
2021/10/28 17:43:00;;;;;;;;;;;;;;;10.55;87.34;98799.34;5030174;27;103358;-67
2021/10/28 17:45:30;;;;;;;;;;;;;;;10.54;89.29;98795.00;5038222;27;102901;-67
2021/10/28 17:47:58;;;;;;;;;;;;;;;10.59;88.68;98787.59;5004765;27;103234;-67
2021/10/28 17:50:26;;;;;;;;;;;;;;;10.52;88.21;98791.66;5042999;27;103866;-67
2021/10/28 17:52:54;;;;;;;;;;;;;;;10.44;90.03;98786.06;5041294;27;103204;-67
2021/10/28 17:55:26;;;;;;;;;;;;;;;10.47;88.98;98784.03;5029425;27;103180;-67
2021/10/28 17:57:54;;;;;;;;;;;;;;;10.51;87.69;98789.94;5042615;27;102813;-67
2021/10/28 18:00:22;;;;;;;;;;;;;;;10.50;86.56;98793.53;5047699;27;102957;-67
2021/10/28 18:02:52;;;;;;;;;;;;;;;10.24;85.57;98791.88;5047944;27;102715;-67
2021/10/28 18:05:40;;;;;;;20.83;17.07;;;;;;;9.83;88.21;98803.44;5043359;27;103372;-67
2021/10/28 18:08:08;;;;;;;19.13;16.10;;;;;;;9.83;87.99;98800.81;5043142;27;103124;-66
2021/10/28 18:10:37;;;;;;;20.40;15.77;;;;;;;9.80;88.61;98803.63;5043143;27;102675;-67
2021/10/28 18:13:07;;;;;;;17.60;15.70;;;;;;;9.80;88.81;98806.28;5036486;27;104722;-67
2021/10/28 18:15:35;;;;;;;19.03;16.03;;;;;;;9.90;88.75;98793.31;5041651;27;103195;-67
2021/10/28 18:18:06;;;;;;;15.53;13.23;;;;;;;9.93;88.05;98797.53;5042685;27;103038;-67
2021/10/28 18:20:56;;;;;;;11.47;9.73;;;;;;;10.00;87.37;98794.38;5024904;27;102892;-67
2021/10/28 18:23:34;;;;;;;12.97;11.67;;;;;;;10.00;86.66;98796.16;5023135;27;104242;-67
2021/10/28 18:26:05;;;;;;;18.47;14.40;;;;;;;9.88;86.78;98796.03;5038901;27;103183;-66
2021/10/28 18:28:36;;;;;;;16.23;14.63;;;;;;;10.38;85.66;98794.41;5042495;27;102872;-67
2021/10/28 18:31:05;;;;;;;17.60;15.63;;;;;;;9.97;86.26;98794.56;5039199;27;102635;-67
2021/10/28 18:33:33;;;;;;;14.70;13.13;;;;;;;9.88;86.75;98790.78;5039646;27;104637;-66
2021/10/28 18:36:02;;;;;;;15.57;13.43;;;;;;;9.86;86.32;98791.81;5037467;27;103206;-67
2021/10/28 18:38:32;;;;;;;10.63;9.53;;;;;;;9.79;86.95;98791.41;5038725;27;102859;-66
2021/10/28 18:41:01;;;;;;;16.47;13.83;;;;;;;9.77;86.04;98788.00;5020706;27;105078;-67
2021/10/28 18:43:32;;;;;;;19.97;13.97;;;;;;;9.57;87.58;98788.50;5018628;27;103795;-67
2021/10/28 18:46:00;;;;;;;20.97;15.10;;;;;;;9.35;88.15;98782.97;5012899;27;103970;-66
2021/10/28 18:48:29;;;;;;;16.93;14.23;;;;;;;9.40;87.94;98783.53;5037659;27;106381;-67
2021/10/28 18:50:58;;;;;;;17.00;14.60;;;;;;;9.38;87.52;98780.13;5037930;27;103205;-67
2021/10/28 18:53:35;;;;;;;17.87;15.57;;;;;;;9.14;89.23;98771.19;5014631;27;103202;-67
2021/10/28 18:56:03;;;;;;;20.40;16.50;;;;;;;8.94;89.57;98779.56;5017477;27;103247;-66
2021/10/28 18:58:32;;;;;;;18.80;15.30;;;;;;;8.80;90.76;98779.59;5042255;27;102643;-66
2021/10/28 19:01:00;;;;;;;17.70;14.60;;;;;;;8.88;90.81;98779.94;5040786;27;104067;-66
2021/10/28 19:03:30;;;;;;;13.23;11.67;;;;;;;8.99;89.95;98775.69;5035124;27;103208;-66
2021/10/28 19:05:59;;;;;;;18.60;14.53;;;;;;;9.03;88.73;98768.41;5029481;27;103401;-66
2021/10/28 19:08:27;;;;;;;15.97;14.20;;;;;;;9.01;88.43;98770.31;5005658;27;103904;-66
2021/10/28 19:10:55;;;;;;;16.93;14.03;;;;;;;8.95;88.47;98770.72;5043194;27;104049;-66
2021/10/28 19:13:23;;;;;;;16.97;15.17;;;;;;;8.76;90.18;98770.22;5030644;27;103234;-66
2021/10/28 19:15:55;;;;;;;20.10;16.07;;;;;;;8.75;89.85;98764.09;5034317;27;103212;-66
2021/10/28 19:18:23;;;;;;;17.03;13.87;;;;;;;8.72;90.00;98765.13;5033667;27;102724;-66
2021/10/28 19:20:51;;;;;;;18.67;15.83;;;;;;;8.78;89.97;98760.41;5036613;27;102917;-65
2021/10/28 19:23:20;;;;;;;20.97;18.70;;;;;;;8.56;90.59;98766.19;5037473;27;103260;-66
2021/10/28 19:25:48;;;;;;;;;;;;;;;8.29;92.48;98763.50;5036061;27;103735;-66
2021/10/28 19:28:19;;;;;;;;;;;;;;;8.25;93.70;98758.50;5019200;27;103274;-66
2021/10/28 19:30:52;;;;;;;;;;;;;;;8.15;93.43;98747.66;5041931;27;102624;-66
2021/10/28 19:33:23;;;;;;;;;;;;;;;8.32;94.26;98750.13;5025342;27;103950;-66
2021/10/28 19:35:54;;;;;;;;;;;;;;;8.27;93.69;98757.47;5001074;27;108273;-64
2021/10/28 19:38:38;;;;;;;;;;;;;;;8.34;92.99;98753.50;5037962;27;102914;-65
2021/10/28 19:41:16;;;;;;;;;;;;;;;8.04;93.27;98758.00;5043372;27;102895;-65
2021/10/28 19:46:30;;;;;;;;;;;;;;;7.92;93.02;98761.38;5050371;27;102610;-65
2021/10/28 19:48:59;;;;;;;;;;;;;;;7.59;98.31;98753.72;5043504;27;102701;-65
2021/10/28 19:51:27;;;;;;;;;;;;;;;7.72;97.55;98761.75;5045392;27;103747;-65
2021/10/28 19:53:58;;;;;;;;;;;;;;;7.87;96.81;98752.91;5039979;27;103166;-65
2021/10/28 19:56:27;;;;;;;;;;;;;;;7.84;96.35;98753.97;5041733;27;104245;-65
2021/10/28 19:58:59;;;;;;;;;;;;;;;7.95;96.31;98755.94;5031804;27;102978;-65